createdAt,value
2022-08-22T00:01:41.479Z,21.46
2022-08-22T00:03:00.233Z,23.51
2022-08-22T00:03:04.185Z,23.37
2022-08-22T00:04:48.731Z,21.43
2022-08-22T00:07:27.370Z,21.38
2022-08-22T00:10:11.591Z,21.34
2022-08-22T00:13:12.030Z,21.30
2022-08-22T00:16:09.041Z,21.27
2022-08-22T00:19:14.173Z,21.25
2022-08-22T00:22:15.300Z,21.22
2022-08-22T00:24:48.942Z,21.19
2022-08-22T00:27:20.941Z,21.17
2022-08-22T00:29:53.563Z,21.16
2022-08-22T00:32:34.619Z,21.10
2022-08-22T00:35:25.331Z,21.07
2022-08-22T00:38:14.262Z,21.04
2022-08-22T00:41:05.636Z,21.00
2022-08-22T00:43:53.395Z,20.99
2022-08-22T00:46:24.438Z,20.96
2022-08-22T00:49:30.122Z,20.96
2022-08-22T00:52:17.884Z,20.96
2022-08-22T00:55:09.392Z,20.92
2022-08-22T00:57:57.275Z,20.87
2022-08-22T01:00:35.250Z,20.87
2022-08-22T01:03:29.072Z,20.87
2022-08-22T01:06:10.471Z,20.82
2022-08-22T01:09:15.233Z,20.82
2022-08-22T01:12:06.944Z,20.79
2022-08-22T01:14:42.572Z,20.79
2022-08-22T01:17:35.273Z,20.79
2022-08-22T01:20:34.983Z,20.78
2022-08-22T01:23:40.439Z,20.77
2022-08-22T01:26:28.860Z,20.73
2022-08-22T01:29:34.496Z,20.68
2022-08-22T01:32:43.425Z,20.62
2022-08-22T01:35:24.564Z,20.57
2022-08-22T01:38:18.764Z,20.54
2022-08-22T01:41:13.383Z,20.47
2022-08-22T01:43:59.791Z,20.41
2022-08-22T01:46:31.211Z,20.39
2022-08-22T01:49:09.763Z,20.38
2022-08-22T01:51:51.725Z,20.39
2022-08-22T01:54:38.422Z,20.41
2022-08-22T01:57:08.154Z,20.40
2022-08-22T01:59:42.674Z,20.40
2022-08-22T02:02:27.739Z,20.41
2022-08-22T02:05:06.452Z,20.42
2022-08-22T02:08:02.083Z,20.44
2022-08-22T02:10:48.106Z,20.43
2022-08-22T02:13:17.337Z,20.42
2022-08-22T02:16:01.465Z,20.43
2022-08-22T02:18:43.593Z,20.43
2022-08-22T02:21:21.953Z,20.42
2022-08-22T02:24:33.423Z,20.42
2022-08-22T02:27:15.371Z,20.39
2022-08-22T02:29:50.165Z,20.38
2022-08-22T02:32:26.846Z,20.35
2022-08-22T02:35:01.387Z,20.34
2022-08-22T02:37:40.121Z,20.35
2022-08-22T02:40:47.983Z,20.35
2022-08-22T02:43:24.023Z,20.32
2022-08-22T02:46:11.750Z,20.30
2022-08-22T02:49:02.372Z,20.31
2022-08-22T02:51:31.973Z,20.28
2022-08-22T02:54:14.073Z,20.28
2022-08-22T02:56:52.626Z,20.26
2022-08-22T02:59:36.482Z,20.22
2022-08-22T03:02:24.835Z,20.21
2022-08-22T03:04:54.380Z,20.17
2022-08-22T03:07:20.775Z,20.18
2022-08-22T03:10:19.596Z,20.19
2022-08-22T03:12:48.962Z,20.15
2022-08-22T03:15:27.345Z,20.12
2022-08-22T03:18:16.554Z,20.12
2022-08-22T03:20:52.337Z,20.09
2022-08-22T03:23:25.242Z,20.08
2022-08-22T03:26:01.894Z,20.07
2022-08-22T03:28:52.640Z,20.10
2022-08-22T03:31:27.598Z,20.08
2022-08-22T03:34:20.237Z,20.06
2022-08-22T03:37:20.985Z,20.01
2022-08-22T03:40:00.393Z,20.01
2022-08-22T03:42:38.747Z,19.98
2022-08-22T03:45:42.985Z,19.97
2022-08-22T03:48:31.199Z,19.92
2022-08-22T03:51:09.300Z,19.90
2022-08-22T03:53:48.498Z,19.89
2022-08-22T03:56:54.022Z,19.88
2022-08-22T03:59:56.046Z,19.83
2022-08-22T04:02:43.065Z,19.80
2022-08-22T04:05:24.989Z,19.79
2022-08-22T04:08:36.506Z,19.72
2022-08-22T04:11:28.590Z,19.72
2022-08-22T04:14:24.226Z,19.73
2022-08-22T04:17:04.146Z,19.74
2022-08-22T04:19:42.409Z,19.72
2022-08-22T04:22:36.694Z,19.72
2022-08-22T04:25:17.192Z,19.69
2022-08-22T04:27:49.643Z,19.68
2022-08-22T04:30:54.718Z,19.67
2022-08-22T04:33:31.908Z,19.67
2022-08-22T04:36:13.516Z,19.67
2022-08-22T04:39:12.304Z,19.68
2022-08-22T04:41:48.167Z,19.62
2022-08-22T04:44:22.531Z,19.61
2022-08-22T04:46:56.166Z,19.57
2022-08-22T04:49:46.143Z,19.60
2022-08-22T04:52:42.178Z,19.62
2022-08-22T04:55:24.792Z,19.60
2022-08-22T04:58:06.415Z,19.60
2022-08-22T05:00:40.401Z,19.62
2022-08-22T05:03:16.116Z,19.62
2022-08-22T05:05:45.085Z,19.62
2022-08-22T05:08:17.299Z,19.65
2022-08-22T05:10:48.497Z,19.66
2022-08-22T05:13:25.050Z,19.67
2022-08-22T05:15:58.098Z,19.62
2022-08-22T05:18:29.943Z,19.62
2022-08-22T05:21:01.817Z,19.62
2022-08-22T05:23:36.074Z,19.66
2022-08-22T05:26:06.811Z,19.65
2022-08-22T05:28:37.784Z,19.64
2022-08-22T05:31:09.087Z,19.68
2022-08-22T05:33:50.503Z,19.71
2022-08-22T05:36:24.857Z,19.72
2022-08-22T05:38:56.303Z,19.74
2022-08-22T05:41:29.001Z,19.77
2022-08-22T05:43:58.629Z,19.78
2022-08-22T05:46:43.191Z,19.81
2022-08-22T05:49:19.927Z,19.77
2022-08-22T05:52:04.708Z,19.75
2022-08-22T05:54:48.467Z,19.75
2022-08-22T05:57:27.238Z,19.75
2022-08-22T06:00:03.930Z,19.79
2022-08-22T06:02:56.015Z,19.81
2022-08-22T06:05:34.970Z,19.84
2022-08-22T06:08:23.883Z,19.87
2022-08-22T06:10:59.324Z,19.88
2022-08-22T06:13:37.744Z,19.88
2022-08-22T06:16:21.365Z,19.91
2022-08-22T06:18:50.567Z,19.91
2022-08-22T06:21:39.310Z,19.97
2022-08-22T06:24:13.230Z,20.02
2022-08-22T06:26:48.722Z,20.05
2022-08-22T06:29:36.128Z,20.11
2022-08-22T06:32:10.334Z,20.13
2022-08-22T06:34:41.075Z,20.16
2022-08-22T06:37:12.285Z,20.18
2022-08-22T06:39:43.433Z,20.17
2022-08-22T06:42:19.899Z,20.15
2022-08-22T06:45:17.420Z,20.19
2022-08-22T06:47:53.677Z,20.27
2022-08-22T06:50:32.118Z,20.34
2022-08-22T06:53:01.150Z,20.46
2022-08-22T06:55:30.231Z,20.61
2022-08-22T06:58:01.438Z,20.77
2022-08-22T07:00:28.293Z,20.98
2022-08-22T07:03:14.347Z,21.17
2022-08-22T07:05:42.886Z,21.43
2022-08-22T07:08:14.982Z,21.70
2022-08-22T07:10:44.115Z,21.99
2022-08-22T07:13:19.133Z,22.15
2022-08-22T07:15:53.831Z,22.23
2022-08-22T07:18:25.945Z,22.21
2022-08-22T07:20:59.089Z,22.09
2022-08-22T07:23:47.796Z,22.04
2022-08-22T07:26:28.429Z,21.94
2022-08-22T07:29:11.393Z,22.32
2022-08-22T07:31:51.552Z,22.87
2022-08-22T07:34:42.836Z,23.33
2022-08-22T07:37:52.006Z,23.84
2022-08-22T07:40:25.131Z,24.29
2022-08-22T07:43:00.869Z,24.76
2022-08-22T07:45:37.674Z,25.19
2022-08-22T07:48:31.633Z,25.61
2022-08-22T07:51:13.580Z,25.96
2022-08-22T07:54:00.351Z,26.40
2022-08-22T07:56:53.559Z,26.73
2022-08-22T07:59:22.458Z,27.01
2022-08-22T08:01:53.884Z,27.20
2022-08-22T08:04:26.090Z,27.49
2022-08-22T08:06:58.082Z,27.67
2022-08-22T08:09:30.890Z,27.89
2022-08-22T08:11:59.303Z,28.09
2022-08-22T08:14:26.994Z,28.04
2022-08-22T08:17:13.030Z,28.17
2022-08-22T08:19:42.537Z,28.36
2022-08-22T08:22:15.653Z,28.52
2022-08-22T08:24:44.872Z,28.61
2022-08-22T08:27:34.602Z,28.74
2022-08-22T08:30:22.137Z,29.04
2022-08-22T08:32:57.526Z,29.27
2022-08-22T08:36:02.599Z,29.38
2022-08-22T08:38:40.226Z,29.51
2022-08-22T08:41:45.634Z,29.61
2022-08-22T08:44:49.550Z,29.75
2022-08-22T08:47:46.290Z,29.66
2022-08-22T08:50:33.368Z,29.77
2022-08-22T08:53:24.247Z,29.93
2022-08-22T08:56:17.811Z,30.00
2022-08-22T08:59:09.979Z,30.07
2022-08-22T09:02:13.625Z,30.01
2022-08-22T09:05:12.533Z,29.78
2022-08-22T09:08:17.184Z,29.71
2022-08-22T09:11:17.642Z,29.77
2022-08-22T09:14:17.139Z,29.84
2022-08-22T09:17:23.578Z,29.97
2022-08-22T09:23:38.852Z,29.82
2022-08-22T09:26:38.617Z,29.78
2022-08-22T09:29:09.571Z,29.92
2022-08-22T09:31:52.129Z,30.09
2022-08-22T09:34:56.224Z,30.28
2022-08-22T09:38:20.897Z,30.41
2022-08-22T09:40:15.553Z,29.80
2022-08-22T09:41:13.292Z,30.54
2022-08-22T09:44:27.903Z,30.45
2022-08-22T09:47:14.385Z,30.57
2022-08-22T09:49:43.067Z,30.73
2022-08-22T09:53:02.280Z,30.74
2022-08-22T09:55:47.639Z,30.88
2022-08-22T09:58:42.283Z,31.04
2022-08-22T10:01:36.355Z,31.05
2022-08-22T10:04:37.331Z,31.15
2022-08-22T10:07:25.183Z,31.31
2022-08-22T10:10:04.769Z,31.23
2022-08-22T10:12:58.612Z,31.32
2022-08-22T10:15:51.146Z,31.35
2022-08-22T10:18:53.718Z,31.25
2022-08-22T10:22:15.738Z,31.10
2022-08-22T10:25:00.027Z,31.29
2022-08-22T10:27:38.009Z,31.40
2022-08-22T10:30:16.306Z,31.48
2022-08-22T10:33:29.199Z,31.54
2022-08-22T10:36:20.370Z,31.29
2022-08-22T10:38:55.052Z,31.47
2022-08-22T10:41:36.716Z,31.54
2022-08-22T10:44:21.522Z,31.62
2022-08-22T10:47:06.643Z,31.56
2022-08-22T10:49:55.574Z,31.57
2022-08-22T10:52:32.614Z,31.66
2022-08-22T10:55:18.804Z,31.68
2022-08-22T10:58:10.741Z,31.59
2022-08-22T11:00:56.584Z,31.41
2022-08-22T11:03:25.933Z,31.32
2022-08-22T11:05:59.633Z,31.23
2022-08-22T11:08:37.109Z,30.96
2022-08-22T11:11:06.502Z,30.81
2022-08-22T11:13:51.700Z,30.75
2022-08-22T11:16:36.792Z,30.78
2022-08-22T11:19:20.784Z,30.74
2022-08-22T11:22:18.980Z,30.75
2022-08-22T11:25:14.099Z,30.64
2022-08-22T11:28:15.681Z,30.56
2022-08-22T11:31:03.617Z,30.73
2022-08-22T11:33:46.902Z,30.93
2022-08-22T11:36:31.045Z,31.28
2022-08-22T11:39:25.360Z,31.52
2022-08-22T11:42:07.268Z,31.67
2022-08-22T11:44:50.300Z,31.58
2022-08-22T11:47:27.162Z,31.48
2022-08-22T11:50:15.008Z,31.52
2022-08-22T11:53:14.429Z,31.50
2022-08-22T11:56:05.435Z,31.52
2022-08-22T11:58:41.846Z,31.42
2022-08-22T12:01:18.574Z,31.50
2022-08-22T12:04:09.977Z,31.56
2022-08-22T12:06:49.913Z,31.79
2022-08-22T12:09:50.522Z,31.97
2022-08-22T12:12:40.258Z,31.98
2022-08-22T12:15:30.482Z,32.14
2022-08-22T12:18:33.684Z,32.17
2022-08-22T12:21:06.473Z,32.04
2022-08-22T12:23:48.799Z,31.96
2022-08-22T12:26:27.837Z,31.83
2022-08-22T12:29:15.427Z,31.59
2022-08-22T12:31:59.407Z,31.36
2022-08-22T12:34:54.781Z,31.23
2022-08-22T12:37:52.972Z,31.22
2022-08-22T12:40:37.976Z,31.11
2022-08-22T12:43:32.826Z,31.01
2022-08-22T12:46:18.720Z,30.98
2022-08-22T12:49:00.498Z,30.80
2022-08-22T12:51:57.390Z,30.61
2022-08-22T12:54:52.982Z,30.73
2022-08-22T12:57:31.194Z,30.73
2022-08-22T13:00:38.057Z,30.75
2022-08-22T13:03:10.153Z,30.68
2022-08-22T13:05:40.624Z,30.70
2022-08-22T13:08:17.537Z,30.73
2022-08-22T13:10:58.247Z,30.58
2022-08-22T13:13:56.149Z,30.46
2022-08-22T13:16:48.818Z,30.32
2022-08-22T13:19:22.312Z,30.16
2022-08-22T13:21:59.643Z,30.09
2022-08-22T13:24:51.740Z,30.06
2022-08-22T13:27:29.858Z,30.04
2022-08-22T13:30:21.651Z,29.96
2022-08-22T13:32:49.953Z,29.91
2022-08-22T13:35:44.630Z,29.77
2022-08-22T13:38:34.674Z,29.76
2022-08-22T13:41:04.542Z,29.72
2022-08-22T13:43:37.040Z,29.58
2022-08-22T13:46:10.808Z,29.41
2022-08-22T13:48:56.662Z,29.44
2022-08-22T13:51:45.182Z,29.44
2022-08-22T13:54:15.993Z,29.40
2022-08-22T13:56:53.961Z,29.40
2022-08-22T13:59:52.444Z,29.49
2022-08-22T14:02:43.310Z,29.59
2022-08-22T14:05:16.877Z,29.67
2022-08-22T14:08:18.750Z,29.65
2022-08-22T14:11:01.433Z,29.53
2022-08-22T14:13:49.213Z,29.53
2022-08-22T14:16:32.184Z,29.54
2022-08-22T14:19:06.305Z,29.59
2022-08-22T14:21:42.484Z,29.56
2022-08-22T14:24:30.891Z,29.50
2022-08-22T14:27:05.669Z,29.47
2022-08-22T14:29:50.865Z,29.53
2022-08-22T14:32:22.805Z,29.55
2022-08-22T14:35:01.272Z,29.47
2022-08-22T14:37:39.026Z,29.49
2022-08-22T14:40:27.952Z,29.49
2022-08-22T14:43:05.108Z,29.47
2022-08-22T14:45:40.351Z,29.47
2022-08-22T14:48:31.343Z,29.48
2022-08-22T14:51:04.096Z,29.43
2022-08-22T14:53:34.532Z,29.48
2022-08-22T14:56:22.185Z,29.35
2022-08-22T14:59:01.058Z,29.17
2022-08-22T15:01:53.411Z,29.19
2022-08-22T15:04:35.684Z,29.15
2022-08-22T15:07:02.698Z,29.12
2022-08-22T15:09:33.932Z,29.13
2022-08-22T15:12:03.780Z,29.20
2022-08-22T15:14:52.150Z,29.31
2022-08-22T15:17:44.753Z,29.38
2022-08-22T15:20:38.214Z,29.33
2022-08-22T15:23:21.868Z,29.30
2022-08-22T15:26:06.926Z,29.35
2022-08-22T15:28:52.547Z,29.40
2022-08-22T15:31:20.375Z,29.44
2022-08-22T15:33:47.789Z,29.46
2022-08-22T15:36:24.444Z,29.42
2022-08-22T15:38:53.903Z,29.47
2022-08-22T15:41:26.190Z,29.45
2022-08-22T15:44:31.140Z,29.50
2022-08-22T15:47:11.810Z,29.50
2022-08-22T15:49:56.501Z,29.42
2022-08-22T15:52:29.512Z,29.36
2022-08-22T15:54:57.034Z,29.36
2022-08-22T15:57:31.742Z,29.28
2022-08-22T16:00:11.121Z,29.24
2022-08-22T16:02:53.120Z,29.19
2022-08-22T16:06:07.523Z,29.21
2022-08-22T16:08:36.877Z,29.18
2022-08-22T16:11:03.229Z,29.15
2022-08-22T16:13:30.064Z,29.04
2022-08-22T16:16:09.114Z,29.00
2022-08-22T16:18:42.712Z,28.97
2022-08-22T16:21:16.827Z,28.91
2022-08-22T16:23:46.256Z,28.93
2022-08-22T16:26:16.522Z,28.93
2022-08-22T16:29:19.063Z,28.91
2022-08-22T16:31:48.450Z,28.94
2022-08-22T16:34:17.846Z,28.87
2022-08-22T16:37:08.214Z,28.89
2022-08-22T16:40:08.127Z,28.92
2022-08-22T16:42:43.184Z,28.83
2022-08-22T16:45:18.792Z,28.79
2022-08-22T16:47:58.216Z,28.73
2022-08-22T16:50:31.397Z,28.71
2022-08-22T16:53:07.873Z,28.69
2022-08-22T16:55:35.951Z,28.60
2022-08-22T16:58:16.332Z,28.51
2022-08-22T17:00:48.761Z,28.47
2022-08-22T17:03:31.649Z,28.47
2022-08-22T17:06:15.786Z,28.46
2022-08-22T17:09:01.041Z,28.41
2022-08-22T17:11:48.868Z,28.35
2022-08-22T17:14:33.826Z,28.23
2022-08-22T17:17:29.451Z,28.25
2022-08-22T17:20:12.683Z,28.22
2022-08-22T17:22:47.549Z,28.24
2022-08-22T17:25:22.793Z,28.20
2022-08-22T17:28:13.167Z,28.18
2022-08-22T17:31:06.446Z,28.16
2022-08-22T17:33:54.068Z,28.13
2022-08-22T17:36:45.966Z,28.12
2022-08-22T17:39:41.868Z,28.05
2022-08-22T17:42:21.796Z,28.00
2022-08-22T17:45:03.487Z,27.95
2022-08-22T17:48:07.210Z,27.95
2022-08-22T17:50:51.268Z,27.91
2022-08-22T17:53:38.676Z,27.86
2022-08-22T17:56:26.237Z,27.83
2022-08-22T17:59:09.739Z,27.83
2022-08-22T18:01:55.961Z,27.78
2022-08-22T18:04:33.316Z,27.72
2022-08-22T18:07:14.731Z,27.66
2022-08-22T18:09:51.842Z,27.59
2022-08-22T18:12:34.375Z,27.51
2022-08-22T18:15:11.282Z,27.42
2022-08-22T18:17:47.031Z,27.33
2022-08-22T18:20:22.973Z,27.26
2022-08-22T18:22:54.793Z,27.21
2022-08-22T18:25:21.886Z,27.16
2022-08-22T18:28:14.915Z,27.10
2022-08-22T18:30:54.760Z,27.07
2022-08-22T18:33:40.378Z,27.03
2022-08-22T18:36:18.546Z,26.98
2022-08-22T18:38:55.673Z,26.90
2022-08-22T18:41:31.482Z,26.84
2022-08-22T18:44:00.155Z,26.77
2022-08-22T18:46:39.816Z,26.73
2022-08-22T18:49:24.082Z,26.67
2022-08-22T18:52:06.827Z,26.60
2022-08-22T18:55:02.513Z,26.55
2022-08-22T18:57:40.336Z,26.48
2022-08-22T19:00:23.647Z,26.42
2022-08-22T19:03:03.571Z,26.35
2022-08-22T19:05:42.040Z,26.26
2022-08-22T19:08:17.226Z,26.21
2022-08-22T19:11:03.465Z,26.15
2022-08-22T19:13:51.410Z,26.05
2022-08-22T19:16:43.655Z,25.95
2022-08-22T19:19:21.649Z,25.86
2022-08-22T19:22:22.950Z,25.83
2022-08-22T19:25:26.473Z,25.70
2022-08-22T19:28:04.849Z,25.70
2022-08-22T19:30:36.521Z,25.65
2022-08-22T19:33:07.194Z,25.61
2022-08-22T19:36:04.943Z,25.55
2022-08-22T19:38:51.635Z,25.50
2022-08-22T19:41:46.450Z,25.43
2022-08-22T19:44:42.503Z,25.36
2022-08-22T19:47:17.562Z,25.31
2022-08-22T19:49:55.221Z,25.22
2022-08-22T19:52:30.570Z,25.16
2022-08-22T19:55:33.663Z,25.07
2022-08-22T19:58:13.296Z,25.00
2022-08-22T20:00:56.616Z,24.93
2022-08-22T20:03:40.548Z,24.89
2022-08-22T20:06:43.471Z,24.86
2022-08-22T20:09:42.815Z,24.82
2022-08-22T20:12:24.706Z,24.70
2022-08-22T20:14:51.830Z,24.61
2022-08-22T20:17:24.169Z,24.53
2022-08-22T20:20:18.596Z,24.44
2022-08-22T20:22:52.940Z,24.40
2022-08-22T20:25:42.442Z,24.33
2022-08-22T20:28:51.666Z,24.25
2022-08-22T20:31:24.661Z,24.17
2022-08-22T20:34:15.591Z,24.10
2022-08-22T20:36:45.223Z,24.02
2022-08-22T20:39:18.943Z,24.01
2022-08-22T20:42:00.874Z,24.01
2022-08-22T20:44:35.273Z,23.96
2022-08-22T20:47:11.482Z,23.93
2022-08-22T20:49:45.489Z,23.86
2022-08-22T20:52:30.446Z,23.84
2022-08-22T20:55:12.800Z,23.77
2022-08-22T20:57:50.665Z,23.74
2022-08-22T21:00:28.283Z,23.72
2022-08-22T21:03:07.315Z,23.65
2022-08-22T21:05:46.440Z,23.62
2022-08-22T21:08:21.875Z,23.62
2022-08-22T21:11:21.729Z,23.59
2022-08-22T21:13:48.741Z,23.57
2022-08-22T21:16:20.682Z,23.60
2022-08-22T21:18:52.581Z,23.62
2022-08-22T21:21:27.262Z,23.63
2022-08-22T21:23:59.938Z,23.62
2022-08-22T21:26:29.371Z,23.59
2022-08-22T21:28:58.574Z,23.58
2022-08-22T21:31:30.220Z,23.57
2022-08-22T21:34:00.048Z,23.54
2022-08-22T21:36:30.161Z,23.52
2022-08-22T21:39:06.458Z,23.48
2022-08-22T21:41:47.235Z,23.42
2022-08-22T21:44:37.839Z,23.43
2022-08-22T21:47:31.576Z,23.36
2022-08-22T21:50:13.396Z,23.33
2022-08-22T21:52:41.264Z,23.34
2022-08-22T21:55:26.952Z,23.33
2022-08-22T21:58:07.105Z,23.29
2022-08-22T22:00:52.826Z,23.24
2022-08-22T22:03:22.973Z,23.19
2022-08-22T22:05:50.866Z,23.18
2022-08-22T22:08:19.019Z,23.24
2022-08-22T22:10:47.590Z,23.27
2022-08-22T22:13:14.514Z,23.25
2022-08-22T22:15:44.956Z,23.29
2022-08-22T22:18:14.115Z,23.25
2022-08-22T22:20:41.620Z,23.19
2022-08-22T22:23:09.095Z,23.17
2022-08-22T22:25:41.226Z,23.11
2022-08-22T22:28:31.973Z,23.09
2022-08-22T22:31:01.425Z,23.06
2022-08-22T22:33:32.468Z,23.02
2022-08-22T22:36:06.214Z,22.97
2022-08-22T22:38:33.461Z,22.97
2022-08-22T22:41:00.028Z,22.96
2022-08-22T22:43:27.789Z,22.93
2022-08-22T22:45:54.297Z,22.89
2022-08-22T22:48:24.411Z,22.89
2022-08-22T22:50:53.097Z,22.87
2022-08-22T22:53:21.203Z,22.88
2022-08-22T22:55:57.731Z,22.91
2022-08-22T22:58:27.940Z,22.85
2022-08-22T23:00:55.015Z,22.85
2022-08-22T23:03:21.638Z,22.83
2022-08-22T23:05:48.833Z,22.82
2022-08-22T23:08:15.818Z,22.80
2022-08-22T23:10:42.291Z,22.78
2022-08-22T23:13:09.170Z,22.77
2022-08-22T23:15:37.228Z,22.76
2022-08-22T23:18:03.787Z,22.76
2022-08-22T23:20:30.658Z,22.76
2022-08-22T23:22:57.567Z,22.76
2022-08-22T23:25:24.600Z,22.79
2022-08-22T23:27:52.594Z,22.77
2022-08-22T23:30:20.810Z,22.73
2022-08-22T23:32:47.584Z,22.70
2022-08-22T23:35:14.071Z,22.72
2022-08-22T23:37:40.533Z,22.70
2022-08-22T23:40:09.170Z,22.67
2022-08-22T23:42:36.086Z,22.65
2022-08-22T23:45:02.897Z,22.59
2022-08-22T23:47:29.296Z,22.62
2022-08-22T23:49:56.139Z,22.60
2022-08-22T23:52:25.827Z,22.59
2022-08-22T23:54:55.646Z,22.57
2022-08-22T23:57:26.560Z,22.51
2022-08-22T23:59:57.760Z,22.49
